Time,TemperatureF,DewpointF,PressureIn,WindDirection,WindDirectionDegrees,WindSpeedMPH,WindSpeedGustMPH,Humidity,HourlyPrecipIn,Conditions,Clouds,dailyrainin,SoftwareType,DateUTC
2013-03-25 00:00:00,47.7,45.2,29.59,WSW,252,0.0,0.0,91,0.00,,CLR,0.00,VWS V14.01,2013-03-25 07:00:00,
2013-03-25 00:10:00,47.5,45.0,29.59,WSW,252,0.0,0.0,91,0.00,,CLR,0.00,VWS V14.01,2013-03-25 07:10:00,
2013-03-25 00:20:00,47.3,45.1,29.59,WSW,252,0.0,0.0,92,0.00,,CLR,0.00,VWS V14.01,2013-03-25 07:20:00,
2013-03-25 00:30:00,47.1,44.9,29.59,WSW,252,0.0,0.0,92,0.00,,CLR,0.00,VWS V14.01,2013-03-25 07:30:00,
2013-03-25 00:40:00,46.8,44.6,29.59,WSW,252,0.0,0.0,92,0.00,,CLR,0.00,VWS V14.01,2013-03-25 07:40:00,
2013-03-25 00:50:00,46.8,44.8,29.56,WSW,252,0.0,0.0,93,0.00,,CLR,0.00,VWS V14.01,2013-03-25 07:50:00,
2013-03-25 01:00:00,46.9,45.3,29.56,WSW,252,0.0,0.0,94,0.00,,CLR,0.00,VWS V14.01,2013-03-25 08:00:00,
2013-03-25 01:10:00,46.8,45.1,29.59,WSW,252,0.0,0.0,94,0.00,,CLR,0.00,VWS V14.01,2013-03-25 08:10:00,
2013-03-25 01:20:00,46.8,45.1,29.59,WSW,252,0.0,0.0,94,0.00,,CLR,0.00,VWS V14.01,2013-03-25 08:20:00,
2013-03-25 01:30:00,46.6,45.2,29.59,WSW,252,0.0,0.0,95,0.00,,CLR,0.00,VWS V14.01,2013-03-25 08:30:00,
2013-03-25 01:40:00,46.6,45.2,29.59,WSW,252,0.0,0.0,95,0.00,,CLR,0.00,VWS V14.01,2013-03-25 08:40:00,
2013-03-25 01:50:00,46.2,44.9,29.59,WSW,252,0.0,0.0,95,0.00,,CLR,0.00,VWS V14.01,2013-03-25 08:50:00,
2013-03-25 02:00:00,45.5,44.2,29.59,WSW,252,0.0,0.0,95,0.00,,CLR,0.00,VWS V14.01,2013-03-25 09:00:00,
2013-03-25 02:10:00,45.1,43.8,29.59,WSW,252,0.0,0.0,95,0.00,,CLR,0.00,VWS V14.01,2013-03-25 09:10:00,
2013-03-25 02:20:00,45.0,43.6,29.59,WSW,252,0.0,0.0,95,0.00,,CLR,0.00,VWS V14.01,2013-03-25 09:20:00,
2013-03-25 02:30:00,44.8,43.4,29.59,WSW,252,0.0,0.0,95,0.00,,CLR,0.00,VWS V14.01,2013-03-25 09:30:00,
2013-03-25 02:40:00,44.4,43.1,29.59,WSW,252,0.0,0.0,95,0.00,,CLR,0.00,VWS V14.01,2013-03-25 09:40:00,
2013-03-25 02:50:00,44.6,43.3,29.56,WSW,252,0.0,0.0,95,0.00,,CLR,0.00,VWS V14.01,2013-03-25 09:50:00,
2013-03-25 03:00:00,44.1,43.0,29.56,WSW,252,0.0,0.0,96,0.00,,CLR,0.00,VWS V14.01,2013-03-25 10:00:00,
2013-03-25 03:10:00,44.4,43.3,29.56,WSW,252,0.0,0.0,96,0.00,,,0.00,VWS V14.01,2013-03-25 10:10:00,
2013-03-25 03:20:00,44.6,43.5,29.56,WSW,252,0.0,0.0,96,0.00,,,0.00,VWS V14.01,2013-03-25 10:20:00,
2013-03-25 03:30:00,44.2,43.2,29.59,WSW,252,0.0,0.0,96,0.00,,,0.00,VWS V14.01,2013-03-25 10:30:00,
2013-03-25 03:40:00,44.1,43.0,29.59,WSW,252,0.0,0.0,96,0.00,,,0.00,VWS V14.01,2013-03-25 10:40:00,
2013-03-25 03:50:00,43.5,42.5,29.56,WSW,252,0.0,0.0,96,0.00,,,0.00,VWS V14.01,2013-03-25 10:50:00,
2013-03-25 04:00:00,43.7,42.9,29.56,WSW,252,0.0,0.0,97,0.00,,,0.00,VWS V14.01,2013-03-25 11:00:00,
2013-03-25 04:10:00,43.5,42.7,29.56,WSW,252,0.0,0.0,97,0.00,,,0.00,VWS V14.01,2013-03-25 11:10:00,
2013-03-25 04:20:00,43.5,42.7,29.56,WSW,252,0.0,0.0,97,0.00,,,0.00,VWS V14.01,2013-03-25 11:20:00,
2013-03-25 04:30:00,43.3,42.5,29.56,WSW,252,0.0,0.0,97,0.00,,,0.00,VWS V14.01,2013-03-25 11:30:00,
2013-03-25 04:40:00,43.0,42.2,29.56,WSW,252,0.0,0.0,97,0.00,,,0.00,VWS V14.01,2013-03-25 11:40:00,
2013-03-25 04:50:00,42.8,42.0,29.56,WSW,252,0.0,0.0,97,0.00,,,0.00,VWS V14.01,2013-03-25 11:50:00,
2013-03-25 05:00:00,42.6,42.1,29.56,WSW,252,0.0,0.0,98,0.00,,,0.00,VWS V14.01,2013-03-25 12:00:00,
2013-03-25 05:10:00,42.3,41.7,29.56,WSW,252,0.0,0.0,98,0.00,,,0.00,VWS V14.01,2013-03-25 12:10:00,
2013-03-25 05:20:00,41.9,41.4,29.59,WSW,252,0.0,0.0,98,0.00,,,0.00,VWS V14.01,2013-03-25 12:20:00,
2013-03-25 05:30:00,42.4,42.2,29.59,WSW,252,0.0,0.0,99,0.00,,,0.00,VWS V14.01,2013-03-25 12:30:00,
2013-03-25 05:40:00,42.4,42.2,29.59,WSW,252,0.0,0.0,99,0.00,,,0.00,VWS V14.01,2013-03-25 12:40:00,
2013-03-25 05:50:00,42.6,42.4,29.59,SW,218,2.7,2.7,99,0.00,,,0.00,VWS V14.01,2013-03-25 12:50:00,
2013-03-25 06:00:00,42.4,42.2,29.59,SSW,202,0.0,3.6,99,0.00,,,0.00,VWS V14.01,2013-03-25 13:00:00,
2013-03-25 06:10:00,43.0,42.7,29.59,SSW,202,0.0,0.0,99,0.00,,,0.00,VWS V14.01,2013-03-25 13:10:00,
2013-03-25 06:20:00,43.0,43.0,29.59,SSW,202,0.0,0.0,100,0.00,,,0.00,VWS V14.01,2013-03-25 13:20:00,
2013-03-25 06:30:00,43.0,43.0,29.59,South,189,0.0,0.0,100,0.00,,,0.00,VWS V14.01,2013-03-25 13:30:00,
2013-03-25 06:40:00,43.5,43.5,29.59,South,189,0.0,0.0,100,0.00,,,0.00,VWS V14.01,2013-03-25 13:40:00,
2013-03-25 06:50:00,43.3,43.3,29.59,South,189,0.0,0.0,100,0.00,,,0.00,VWS V14.01,2013-03-25 13:50:00,
2013-03-25 07:00:00,43.0,43.0,29.59,South,189,0.0,0.0,100,0.00,,,0.00,VWS V14.01,2013-03-25 14:00:00,
2013-03-25 07:10:00,43.0,43.0,29.59,South,189,0.0,0.0,100,0.00,,,0.00,VWS V14.01,2013-03-25 14:10:00,
2013-03-25 07:20:00,43.3,43.3,29.59,South,189,0.0,0.0,100,0.00,,,0.00,VWS V14.01,2013-03-25 14:20:00,
2013-03-25 07:30:00,43.3,43.3,29.59,South,189,0.0,0.0,100,0.00,,,0.00,VWS V14.01,2013-03-25 14:30:00,
2013-03-25 07:40:00,42.8,42.8,29.59,South,189,0.0,0.0,100,0.00,,,0.00,VWS V14.01,2013-03-25 14:40:00,
2013-03-25 07:50:00,43.2,43.2,29.59,South,189,0.0,0.0,100,0.00,,,0.00,VWS V14.01,2013-03-25 14:50:00,
2013-03-25 08:00:00,43.2,43.2,29.59,South,189,0.0,0.0,100,0.00,,,0.00,VWS V14.01,2013-03-25 15:00:00,
2013-03-25 08:10:00,43.0,43.0,29.59,SW,232,0.0,0.0,100,0.00,,,0.00,VWS V14.01,2013-03-25 15:10:00,
2013-03-25 08:20:00,42.8,42.8,29.59,SW,232,0.0,0.0,100,0.00,,,0.00,VWS V14.01,2013-03-25 15:20:00,
2013-03-25 08:30:00,43.5,43.5,29.59,SW,232,0.0,0.0,100,0.00,,,0.00,VWS V14.01,2013-03-25 15:30:00,
2013-03-25 08:40:00,43.7,43.7,29.59,SW,232,0.0,0.0,100,0.00,,,0.00,VWS V14.01,2013-03-25 15:40:00,
2013-03-25 08:50:00,43.5,43.5,29.59,SW,223,0.0,0.0,100,0.00,,,0.00,VWS V14.01,2013-03-25 15:50:00,
2013-03-25 09:00:00,43.9,43.9,29.59,SW,223,0.0,0.0,100,0.00,,,0.00,VWS V14.01,2013-03-25 16:00:00,
2013-03-25 09:10:00,44.1,44.1,29.59,West,280,0.0,3.1,100,0.00,,,0.00,VWS V14.01,2013-03-25 16:10:00,
2013-03-25 09:20:00,44.1,44.1,29.59,WSW,247,0.0,3.1,100,0.00,,,0.00,VWS V14.01,2013-03-25 16:20:00,
2013-03-25 09:30:00,44.2,44.2,29.59,WNW,300,0.0,0.0,100,0.00,,,0.00,VWS V14.01,2013-03-25 16:30:00,
2013-03-25 09:40:00,44.1,44.1,29.62,WSW,244,0.0,0.0,100,0.00,,,0.00,VWS V14.01,2013-03-25 16:40:00,
2013-03-25 09:50:00,45.1,45.1,29.62,SW,236,0.0,0.0,100,0.00,,,0.00,VWS V14.01,2013-03-25 16:50:00,
2013-03-25 10:00:00,45.3,45.3,29.62,SW,232,0.0,2.7,100,0.00,,,0.00,VWS V14.01,2013-03-25 17:00:00,
2013-03-25 10:10:00,45.7,45.7,29.62,WNW,298,0.0,2.2,100,0.00,,,0.00,VWS V14.01,2013-03-25 17:10:00,
2013-03-25 10:20:00,46.4,46.4,29.62,WSW,251,2.7,3.6,100,0.00,,,0.00,VWS V14.01,2013-03-25 17:20:00,
2013-03-25 10:30:00,46.6,46.6,29.62,SSW,210,3.1,3.6,100,0.00,,,0.00,VWS V14.01,2013-03-25 17:30:00,
2013-03-25 10:40:00,46.8,46.8,29.62,WNW,297,2.2,3.1,100,0.00,,,0.00,VWS V14.01,2013-03-25 17:40:00,
2013-03-25 10:50:00,47.5,47.5,29.62,West,266,0.0,3.1,100,0.00,,,0.00,VWS V14.01,2013-03-25 17:50:00,
2013-03-25 11:00:00,47.8,47.8,29.62,SW,220,0.0,3.6,100,0.00,,,0.00,VWS V14.01,2013-03-25 18:00:00,
2013-03-25 11:10:00,48.7,48.7,29.62,WNW,283,0.0,4.0,100,0.00,,,0.00,VWS V14.01,2013-03-25 18:10:00,
2013-03-25 11:20:00,50.2,50.2,29.62,WNW,291,2.7,4.0,100,0.00,,,0.00,VWS V14.01,2013-03-25 18:20:00,
2013-03-25 11:30:00,51.1,51.1,29.62,NW,326,3.1,4.9,100,0.00,,,0.00,VWS V14.01,2013-03-25 18:30:00,
2013-03-25 11:40:00,51.4,50.6,29.62,SSW,207,3.6,5.8,97,0.00,,,0.00,VWS V14.01,2013-03-25 18:40:00,
2013-03-25 11:50:00,52.7,51.3,29.62,SW,228,2.7,6.3,95,0.00,,,0.00,VWS V14.01,2013-03-25 18:50:00,
2013-03-25 12:00:00,53.6,50.7,29.62,WSW,247,4.0,4.9,90,0.00,,,0.00,VWS V14.01,2013-03-25 19:00:00,
2013-03-25 12:10:00,53.8,50.0,29.62,SW,223,0.0,5.8,87,0.00,,,0.00,VWS V14.01,2013-03-25 19:10:00,
2013-03-25 12:20:00,54.5,50.1,29.62,NW,308,0.0,3.1,85,0.00,,,0.00,VWS V14.01,2013-03-25 19:20:00,
2013-03-25 12:30:00,55.2,49.2,29.62,SW,233,3.1,5.8,80,0.00,,,0.00,VWS V14.01,2013-03-25 19:30:00,
2013-03-25 12:40:00,55.9,49.9,29.62,SW,216,0.0,4.0,80,0.00,,,0.00,VWS V14.01,2013-03-25 19:40:00,
2013-03-25 12:50:00,55.9,48.5,29.62,NW,323,5.8,6.3,76,0.00,,,0.00,VWS V14.01,2013-03-25 19:50:00,
2013-03-25 13:00:00,56.7,49.2,29.62,West,267,2.7,5.8,76,0.00,,,0.00,VWS V14.01,2013-03-25 20:00:00,
2013-03-25 13:10:00,57.0,49.2,29.59,WSW,237,3.1,5.4,75,0.00,,,0.00,VWS V14.01,2013-03-25 20:10:00,
2013-03-25 13:20:00,57.7,49.2,29.59,WSW,240,4.0,5.8,73,0.00,,,0.00,VWS V14.01,2013-03-25 20:20:00,
2013-03-25 13:30:00,58.6,48.9,29.59,SW,214,3.1,4.0,70,0.00,,,0.00,VWS V14.01,2013-03-25 20:30:00,
2013-03-25 13:40:00,58.3,47.4,29.59,NNW,330,3.6,5.8,67,0.00,,,0.00,VWS V14.01,2013-03-25 20:40:00,
2013-03-25 13:50:00,59.0,46.8,29.59,West,279,4.0,5.4,64,0.00,,BKN200,0.00,VWS V14.01,2013-03-25 20:50:00,
2013-03-25 14:00:00,59.2,46.2,29.59,SSW,202,0.0,4.0,62,0.00,,BKN200,0.00,VWS V14.01,2013-03-25 21:00:00,
2013-03-25 14:10:00,59.5,47.4,29.56,East,91,0.0,4.9,64,0.00,,BKN200,0.00,VWS V14.01,2013-03-25 21:10:00,
2013-03-25 14:20:00,60.6,46.2,29.56,ESE,121,0.0,0.0,59,0.00,,BKN200,0.00,VWS V14.01,2013-03-25 21:20:00,
2013-03-25 14:30:00,59.9,44.7,29.56,SSW,210,0.0,3.6,57,0.00,,BKN200,0.00,VWS V14.01,2013-03-25 21:30:00,
2013-03-25 14:40:00,59.9,44.7,29.56,East,83,0.0,2.7,57,0.00,,BKN200,0.00,VWS V14.01,2013-03-25 21:40:00,
2013-03-25 14:50:00,59.4,45.5,29.56,East,95,0.0,2.2,60,0.00,,BKN200,0.00,VWS V14.01,2013-03-25 21:50:00,
2013-03-25 15:00:00,59.0,43.8,29.56,SSW,192,0.0,3.6,57,0.00,,BKN200,0.00,VWS V14.01,2013-03-25 22:00:00,
2013-03-25 15:10:00,58.5,43.8,29.56,ENE,73,0.0,0.0,58,0.00,,BKN200,0.00,VWS V14.01,2013-03-25 22:10:00,
2013-03-25 15:20:00,58.1,43.4,29.56,East,81,0.0,0.0,58,0.00,,BKN200,0.00,VWS V14.01,2013-03-25 22:20:00,
2013-03-25 15:30:00,57.9,43.7,29.56,ENE,76,0.0,0.0,59,0.00,,BKN200,0.00,VWS V14.01,2013-03-25 22:30:00,
2013-03-25 15:40:00,57.9,44.1,29.56,NNE,30,0.0,0.0,60,0.00,,BKN200,0.00,VWS V14.01,2013-03-25 22:40:00,
2013-03-25 15:50:00,57.9,43.7,29.56,West,263,0.0,2.2,59,0.00,,BKN250,0.00,VWS V14.01,2013-03-25 22:50:00,
2013-03-25 16:00:00,57.7,44.0,29.56,West,278,0.0,3.6,60,0.00,,BKN250,0.00,VWS V14.01,2013-03-25 23:00:00,
2013-03-25 16:10:00,57.9,45.0,29.56,SSW,202,2.7,2.7,62,0.00,,BKN250,0.00,VWS V14.01,2013-03-25 23:10:00,
2013-03-25 16:20:00,58.1,45.2,29.56,WNW,299,2.7,3.1,62,0.00,,BKN250,0.00,VWS V14.01,2013-03-25 23:20:00,
2013-03-25 16:30:00,57.9,44.6,29.56,North,1,0.0,3.6,61,0.00,,BKN250,0.00,VWS V14.01,2013-03-25 23:30:00,
2013-03-25 16:40:00,58.1,46.0,29.53,NW,325,0.0,0.0,64,0.00,,BKN250,0.00,VWS V14.01,2013-03-25 23:40:00,
2013-03-25 16:50:00,58.5,45.9,29.53,NNE,16,0.0,0.0,63,0.00,,BKN250,0.00,VWS V14.01,2013-03-25 23:50:00,
2013-03-25 17:00:00,58.5,46.8,29.53,East,82,0.0,0.0,65,0.00,,BKN250,0.00,VWS V14.01,2013-03-26 00:00:00,
2013-03-25 17:10:00,58.3,45.8,29.53,ENE,73,0.0,0.0,63,0.00,,BKN250,0.00,VWS V14.01,2013-03-26 00:10:00,
2013-03-25 17:20:00,57.9,45.4,29.53,East,82,0.0,2.7,63,0.00,,BKN250,0.00,VWS V14.01,2013-03-26 00:20:00,
2013-03-25 17:30:00,57.0,44.6,29.53,East,88,0.0,2.7,63,0.00,,BKN250,0.00,VWS V14.01,2013-03-26 00:30:00,
2013-03-25 17:40:00,56.8,44.8,29.53,East,89,0.0,0.0,64,0.00,,SCT250,0.00,VWS V14.01,2013-03-26 00:40:00,
2013-03-25 17:50:00,56.3,45.1,29.53,West,271,0.0,0.0,66,0.00,,SCT250,0.00,VWS V14.01,2013-03-26 00:50:00,
2013-03-25 18:00:00,55.9,45.2,29.53,ESE,102,0.0,0.0,67,0.00,,SCT250,0.00,VWS V14.01,2013-03-26 01:00:00,
2013-03-25 18:10:00,55.6,45.2,29.53,East,90,0.0,0.0,68,0.00,,SCT250,0.00,VWS V14.01,2013-03-26 01:10:00,
2013-03-25 18:20:00,55.0,45.1,29.53,East,97,0.0,0.0,69,0.00,,SCT250,0.00,VWS V14.01,2013-03-26 01:20:00,
2013-03-25 18:30:00,54.1,44.6,29.53,East,89,0.0,2.2,70,0.00,,SCT250,0.00,VWS V14.01,2013-03-26 01:30:00,
2013-03-25 18:40:00,53.4,44.6,29.53,East,86,0.0,0.0,72,0.00,,SCT250,0.00,VWS V14.01,2013-03-26 01:40:00,
2013-03-25 18:50:00,52.9,44.5,29.53,ENE,78,3.1,3.1,73,0.00,,BKN250,0.00,VWS V14.01,2013-03-26 01:50:00,
2013-03-25 19:00:00,52.5,44.5,29.53,East,101,0.0,3.1,74,0.00,,BKN250,0.00,VWS V14.01,2013-03-26 02:00:00,
2013-03-25 19:10:00,52.2,44.5,29.53,SE,141,0.0,0.0,75,0.00,,BKN250,0.00,VWS V14.01,2013-03-26 02:10:00,
2013-03-25 19:20:00,52.0,44.7,29.56,East,97,0.0,0.0,76,0.00,,BKN250,0.00,VWS V14.01,2013-03-26 02:20:00,
2013-03-25 19:30:00,51.6,44.7,29.56,East,98,0.0,0.0,77,0.00,,BKN250,0.00,VWS V14.01,2013-03-26 02:30:00,
2013-03-25 19:40:00,51.1,44.1,29.56,East,98,0.0,0.0,77,0.00,,BKN250,0.00,VWS V14.01,2013-03-26 02:40:00,
2013-03-25 19:50:00,51.1,44.5,29.53,East,98,0.0,0.0,78,0.00,,BKN110,0.00,VWS V14.01,2013-03-26 02:50:00,
2013-03-25 20:00:00,50.7,44.5,29.53,East,98,0.0,0.0,79,0.00,,BKN110,0.00,VWS V14.01,2013-03-26 03:00:00,
2013-03-25 20:10:00,50.7,45.1,29.53,East,98,0.0,0.0,81,0.00,,BKN110,0.00,VWS V14.01,2013-03-26 03:10:00,
2013-03-25 20:20:00,50.5,44.9,29.56,East,98,0.0,0.0,81,0.00,,BKN110,0.00,VWS V14.01,2013-03-26 03:20:00,
2013-03-25 20:30:00,50.4,44.8,29.53,East,98,0.0,0.0,81,0.00,,BKN110,0.00,VWS V14.01,2013-03-26 03:30:00,
2013-03-25 20:40:00,50.0,46.0,29.53,NW,320,0.0,0.0,86,0.00,,BKN110,0.00,VWS V14.01,2013-03-26 03:40:00,
2013-03-25 20:50:00,50.0,46.0,29.53,NW,321,0.0,0.0,86,0.00,,SCT090,0.00,VWS V14.01,2013-03-26 03:50:00,
2013-03-25 21:00:00,49.8,45.5,29.53,NNW,346,0.0,0.0,85,0.00,,SCT090,0.00,VWS V14.01,2013-03-26 04:00:00,
2013-03-25 21:10:00,49.3,45.6,29.53,North,357,0.0,3.1,87,0.00,,SCT090,0.00,VWS V14.01,2013-03-26 04:10:00,
2013-03-25 21:20:00,49.3,45.6,29.56,WNW,289,0.0,0.0,87,0.00,,SCT090,0.00,VWS V14.01,2013-03-26 04:20:00,
2013-03-25 21:30:00,49.5,46.1,29.56,WNW,289,0.0,0.0,88,0.00,,SCT090,0.00,VWS V14.01,2013-03-26 04:30:00,
2013-03-25 21:40:00,49.5,47.0,29.56,WNW,289,0.0,0.0,91,0.00,,SCT090,0.00,VWS V14.01,2013-03-26 04:40:00,
2013-03-25 21:50:00,49.5,47.2,29.56,WNW,289,0.0,0.0,92,0.00,,OVC110,0.00,VWS V14.01,2013-03-26 04:50:00,
2013-03-25 22:00:00,49.3,47.1,29.56,WNW,289,0.0,0.0,92,0.00,,OVC110,0.00,VWS V14.01,2013-03-26 05:00:00,
2013-03-25 22:10:00,49.1,47.2,29.56,WNW,289,0.0,0.0,93,0.00,,OVC110,0.00,VWS V14.01,2013-03-26 05:10:00,
2013-03-25 22:20:00,48.7,46.8,29.56,WNW,289,0.0,0.0,93,0.00,,OVC110,0.00,VWS V14.01,2013-03-26 05:20:00,
2013-03-25 22:30:00,48.4,46.7,29.56,WNW,289,0.0,0.0,94,0.00,,OVC110,0.00,VWS V14.01,2013-03-26 05:30:00,
2013-03-25 22:40:00,48.2,46.6,29.56,WNW,289,0.0,0.0,94,0.00,,OVC110,0.00,VWS V14.01,2013-03-26 05:40:00,
2013-03-25 22:50:00,48.0,46.4,29.59,WNW,289,0.0,0.0,94,0.00,,SCT120,0.00,VWS V14.01,2013-03-26 05:50:00,
2013-03-25 23:00:00,48.0,46.4,29.59,WNW,289,0.0,0.0,94,0.00,,SCT120,0.00,VWS V14.01,2013-03-26 06:00:00,
2013-03-25 23:10:00,47.8,46.2,29.59,WNW,289,0.0,0.0,94,0.00,,SCT120,0.00,VWS V14.01,2013-03-26 06:10:00,
2013-03-25 23:20:00,47.7,46.3,29.59,WNW,289,0.0,0.0,95,0.00,,SCT120,0.00,VWS V14.01,2013-03-26 06:20:00,
2013-03-25 23:30:00,47.5,46.1,29.59,WNW,289,0.0,0.0,95,0.00,,SCT120,0.00,VWS V14.01,2013-03-26 06:30:00,
2013-03-25 23:40:00,47.3,45.9,29.59,WNW,289,0.0,0.0,95,0.00,,SCT120,0.00,VWS V14.01,2013-03-26 06:40:00,
2013-03-25 23:50:00,46.9,45.6,29.59,WNW,289,0.0,0.0,95,0.00,,CLR,0.00,VWS V14.01,2013-03-26 06:50:00,